sensor_id;sensor_type;location;lat;lon;timestamp;P1;durP1;ratioP1;P2;durP2;ratioP2
78298;SDS011;67556;55.656;12.590;2023-08-30T00:00:43;5.25;;;3.42;;
78298;SDS011;67556;55.656;12.590;2023-08-30T00:03:10;6.20;;;3.83;;
78298;SDS011;67556;55.656;12.590;2023-08-30T00:05:38;6.25;;;3.20;;
78298;SDS011;67556;55.656;12.590;2023-08-30T00:08:05;3.67;;;3.03;;
78298;SDS011;67556;55.656;12.590;2023-08-30T00:10:31;3.55;;;3.15;;
78298;SDS011;67556;55.656;12.590;2023-08-30T00:12:58;4.97;;;2.80;;
78298;SDS011;67556;55.656;12.590;2023-08-30T00:15:27;5.32;;;3.42;;
78298;SDS011;67556;55.656;12.590;2023-08-30T00:17:53;4.53;;;3.50;;
78298;SDS011;67556;55.656;12.590;2023-08-30T00:20:20;4.32;;;3.30;;
78298;SDS011;67556;55.656;12.590;2023-08-30T00:22:46;5.20;;;3.20;;
78298;SDS011;67556;55.656;12.590;2023-08-30T00:25:13;4.22;;;2.78;;
78298;SDS011;67556;55.656;12.590;2023-08-30T00:27:40;5.07;;;3.00;;
78298;SDS011;67556;55.656;12.590;2023-08-30T00:30:07;3.97;;;3.22;;
78298;SDS011;67556;55.656;12.590;2023-08-30T00:32:35;4.75;;;3.25;;
78298;SDS011;67556;55.656;12.590;2023-08-30T00:35:02;4.40;;;2.92;;
78298;SDS011;67556;55.656;12.590;2023-08-30T00:37:28;3.70;;;3.05;;
78298;SDS011;67556;55.656;12.590;2023-08-30T00:39:54;3.30;;;2.80;;
78298;SDS011;67556;55.656;12.590;2023-08-30T00:42:20;4.97;;;3.03;;
78298;SDS011;67556;55.656;12.590;2023-08-30T00:44:47;6.05;;;3.13;;
78298;SDS011;67556;55.656;12.590;2023-08-30T00:47:13;4.38;;;3.30;;
78298;SDS011;67556;55.656;12.590;2023-08-30T00:49:43;4.18;;;3.08;;
78298;SDS011;67556;55.656;12.590;2023-08-30T00:52:10;5.22;;;3.13;;
78298;SDS011;67556;55.656;12.590;2023-08-30T00:54:37;4.40;;;3.28;;
78298;SDS011;67556;55.656;12.590;2023-08-30T00:57:03;5.22;;;3.15;;
78298;SDS011;67556;55.656;12.590;2023-08-30T00:59:30;5.38;;;3.35;;
78298;SDS011;67556;55.656;12.590;2023-08-30T01:01:57;5.75;;;3.20;;
78298;SDS011;67556;55.656;12.590;2023-08-30T01:04:26;4.90;;;3.17;;
78298;SDS011;67556;55.656;12.590;2023-08-30T01:06:54;5.22;;;3.17;;
78298;SDS011;67556;55.656;12.590;2023-08-30T01:09:20;5.32;;;3.45;;
78298;SDS011;67556;55.656;12.590;2023-08-30T01:11:48;4.03;;;3.00;;
78298;SDS011;67556;55.656;12.590;2023-08-30T01:14:18;5.45;;;3.55;;
78298;SDS011;67556;55.656;12.590;2023-08-30T01:16:48;4.65;;;3.35;;
78298;SDS011;67556;55.656;12.590;2023-08-30T01:19:26;4.38;;;3.15;;
78298;SDS011;67556;55.656;12.590;2023-08-30T01:21:58;3.90;;;2.92;;
78298;SDS011;67556;55.656;12.590;2023-08-30T01:24:28;3.80;;;3.17;;
78298;SDS011;67556;55.656;12.590;2023-08-30T01:27:05;5.43;;;3.20;;
78298;SDS011;67556;55.656;12.590;2023-08-30T01:29:32;4.82;;;3.30;;
78298;SDS011;67556;55.656;12.590;2023-08-30T01:31:59;4.25;;;2.90;;
78298;SDS011;67556;55.656;12.590;2023-08-30T01:34:26;5.15;;;2.85;;
78298;SDS011;67556;55.656;12.590;2023-08-30T01:36:52;4.35;;;3.15;;
78298;SDS011;67556;55.656;12.590;2023-08-30T01:39:19;5.22;;;3.38;;
78298;SDS011;67556;55.656;12.590;2023-08-30T01:41:46;4.28;;;3.17;;
78298;SDS011;67556;55.656;12.590;2023-08-30T01:44:14;4.20;;;3.08;;
78298;SDS011;67556;55.656;12.590;2023-08-30T01:46:41;4.25;;;3.50;;
78298;SDS011;67556;55.656;12.590;2023-08-30T01:49:09;4.80;;;3.30;;
78298;SDS011;67556;55.656;12.590;2023-08-30T01:51:36;4.88;;;3.15;;
78298;SDS011;67556;55.656;12.590;2023-08-30T01:54:02;4.35;;;3.38;;
78298;SDS011;67556;55.656;12.590;2023-08-30T01:56:29;4.75;;;3.45;;
78298;SDS011;67556;55.656;12.590;2023-08-30T01:58:55;5.72;;;3.60;;
78298;SDS011;67556;55.656;12.590;2023-08-30T02:01:23;5.30;;;3.10;;
78298;SDS011;67556;55.656;12.590;2023-08-30T02:03:49;5.97;;;3.08;;
78298;SDS011;67556;55.656;12.590;2023-08-30T02:06:17;5.70;;;3.08;;
78298;SDS011;67556;55.656;12.590;2023-08-30T02:08:46;3.75;;;2.75;;
78298;SDS011;67556;55.656;12.590;2023-08-30T02:11:17;3.28;;;2.70;;
78298;SDS011;67556;55.656;12.590;2023-08-30T02:13:45;4.78;;;2.70;;
78298;SDS011;67556;55.656;12.590;2023-08-30T02:16:11;7.38;;;2.95;;
78298;SDS011;67556;55.656;12.590;2023-08-30T02:18:40;5.90;;;2.60;;
78298;SDS011;67556;55.656;12.590;2023-08-30T02:21:07;3.28;;;2.45;;
78298;SDS011;67556;55.656;12.590;2023-08-30T02:23:33;3.67;;;2.67;;
78298;SDS011;67556;55.656;12.590;2023-08-30T02:26:00;4.50;;;2.75;;
78298;SDS011;67556;55.656;12.590;2023-08-30T02:28:28;3.60;;;2.35;;
78298;SDS011;67556;55.656;12.590;2023-08-30T02:30:54;4.60;;;2.67;;
78298;SDS011;67556;55.656;12.590;2023-08-30T02:33:20;3.63;;;2.70;;
78298;SDS011;67556;55.656;12.590;2023-08-30T02:35:48;6.07;;;2.72;;
78298;SDS011;67556;55.656;12.590;2023-08-30T02:38:14;4.15;;;3.03;;
78298;SDS011;67556;55.656;12.590;2023-08-30T02:40:41;4.68;;;2.97;;
78298;SDS011;67556;55.656;12.590;2023-08-30T02:43:07;3.45;;;2.47;;
78298;SDS011;67556;55.656;12.590;2023-08-30T02:45:33;4.07;;;2.45;;
78298;SDS011;67556;55.656;12.590;2023-08-30T02:48:00;2.75;;;2.15;;
78298;SDS011;67556;55.656;12.590;2023-08-30T02:50:26;2.67;;;2.20;;
78298;SDS011;67556;55.656;12.590;2023-08-30T02:52:54;4.10;;;2.50;;
78298;SDS011;67556;55.656;12.590;2023-08-30T02:55:20;4.20;;;2.75;;
78298;SDS011;67556;55.656;12.590;2023-08-30T02:57:46;3.92;;;2.33;;
78298;SDS011;67556;55.656;12.590;2023-08-30T03:02:47;2.78;;;2.40;;
78298;SDS011;67556;55.656;12.590;2023-08-30T03:05:14;3.17;;;2.17;;
78298;SDS011;67556;55.656;12.590;2023-08-30T03:07:40;3.80;;;2.65;;
78298;SDS011;67556;55.656;12.590;2023-08-30T03:10:09;3.60;;;2.60;;
78298;SDS011;67556;55.656;12.590;2023-08-30T03:12:36;4.55;;;2.58;;
78298;SDS011;67556;55.656;12.590;2023-08-30T03:15:02;3.00;;;2.40;;
78298;SDS011;67556;55.656;12.590;2023-08-30T03:17:29;2.92;;;2.17;;
78298;SDS011;67556;55.656;12.590;2023-08-30T03:19:55;3.17;;;2.58;;
78298;SDS011;67556;55.656;12.590;2023-08-30T03:22:21;3.67;;;2.67;;
78298;SDS011;67556;55.656;12.590;2023-08-30T03:24:48;4.35;;;2.58;;
78298;SDS011;67556;55.656;12.590;2023-08-30T03:27:16;2.90;;;2.33;;
78298;SDS011;67556;55.656;12.590;2023-08-30T03:29:45;4.43;;;2.80;;
78298;SDS011;67556;55.656;12.590;2023-08-30T03:32:14;2.47;;;2.28;;
78298;SDS011;67556;55.656;12.590;2023-08-30T03:34:40;3.60;;;2.53;;
78298;SDS011;67556;55.656;12.590;2023-08-30T03:37:10;3.60;;;2.30;;
78298;SDS011;67556;55.656;12.590;2023-08-30T03:39:36;3.63;;;2.78;;
78298;SDS011;67556;55.656;12.590;2023-08-30T03:42:02;3.15;;;2.58;;
78298;SDS011;67556;55.656;12.590;2023-08-30T03:44:30;4.15;;;2.85;;
78298;SDS011;67556;55.656;12.590;2023-08-30T03:46:56;3.13;;;2.63;;
78298;SDS011;67556;55.656;12.590;2023-08-30T03:49:23;4.80;;;2.80;;
78298;SDS011;67556;55.656;12.590;2023-08-30T03:51:49;5.35;;;2.97;;
78298;SDS011;67556;55.656;12.590;2023-08-30T03:54:15;3.92;;;2.95;;
78298;SDS011;67556;55.656;12.590;2023-08-30T03:56:42;4.03;;;3.17;;
78298;SDS011;67556;55.656;12.590;2023-08-30T03:59:08;3.70;;;2.67;;
78298;SDS011;67556;55.656;12.590;2023-08-30T04:01:36;6.03;;;3.20;;
78298;SDS011;67556;55.656;12.590;2023-08-30T04:04:02;5.03;;;2.63;;
78298;SDS011;67556;55.656;12.590;2023-08-30T04:06:30;4.22;;;3.05;;
78298;SDS011;67556;55.656;12.590;2023-08-30T04:08:56;6.10;;;3.50;;
78298;SDS011;67556;55.656;12.590;2023-08-30T04:11:23;4.88;;;2.95;;
78298;SDS011;67556;55.656;12.590;2023-08-30T04:13:48;2.80;;;2.35;;
78298;SDS011;67556;55.656;12.590;2023-08-30T04:16:15;5.20;;;3.42;;
78298;SDS011;67556;55.656;12.590;2023-08-30T04:18:42;4.40;;;3.50;;
78298;SDS011;67556;55.656;12.590;2023-08-30T04:21:09;4.28;;;3.28;;
78298;SDS011;67556;55.656;12.590;2023-08-30T04:23:35;5.07;;;3.67;;
78298;SDS011;67556;55.656;12.590;2023-08-30T04:26:01;4.40;;;3.20;;
78298;SDS011;67556;55.656;12.590;2023-08-30T04:28:27;4.32;;;3.25;;
78298;SDS011;67556;55.656;12.590;2023-08-30T04:30:54;4.22;;;3.20;;
78298;SDS011;67556;55.656;12.590;2023-08-30T04:33:20;6.55;;;3.20;;
78298;SDS011;67556;55.656;12.590;2023-08-30T04:35:50;6.63;;;3.25;;
78298;SDS011;67556;55.656;12.590;2023-08-30T04:38:17;3.97;;;3.10;;
78298;SDS011;67556;55.656;12.590;2023-08-30T04:40:44;4.90;;;3.13;;
78298;SDS011;67556;55.656;12.590;2023-08-30T04:43:10;5.07;;;3.40;;
78298;SDS011;67556;55.656;12.590;2023-08-30T04:45:36;3.10;;;2.47;;
78298;SDS011;67556;55.656;12.590;2023-08-30T04:48:03;4.47;;;3.00;;
78298;SDS011;67556;55.656;12.590;2023-08-30T04:50:29;3.25;;;2.58;;
78298;SDS011;67556;55.656;12.590;2023-08-30T04:52:57;4.50;;;3.20;;
78298;SDS011;67556;55.656;12.590;2023-08-30T04:55:23;3.67;;;3.05;;
78298;SDS011;67556;55.656;12.590;2023-08-30T04:57:50;3.90;;;2.70;;
78298;SDS011;67556;55.656;12.590;2023-08-30T05:00:17;3.95;;;2.97;;
78298;SDS011;67556;55.656;12.590;2023-08-30T05:02:44;5.45;;;3.65;;
78298;SDS011;67556;55.656;12.590;2023-08-30T05:05:11;4.28;;;3.20;;
78298;SDS011;67556;55.656;12.590;2023-08-30T05:07:38;4.20;;;2.90;;
78298;SDS011;67556;55.656;12.590;2023-08-30T05:10:06;4.13;;;3.42;;
78298;SDS011;67556;55.656;12.590;2023-08-30T05:12:33;4.20;;;3.40;;
78298;SDS011;67556;55.656;12.590;2023-08-30T05:15:00;3.75;;;3.00;;
78298;SDS011;67556;55.656;12.590;2023-08-30T05:17:26;5.65;;;3.45;;
78298;SDS011;67556;55.656;12.590;2023-08-30T05:19:54;4.90;;;3.13;;
78298;SDS011;67556;55.656;12.590;2023-08-30T05:22:21;4.15;;;3.10;;
78298;SDS011;67556;55.656;12.590;2023-08-30T05:24:47;5.55;;;3.40;;
78298;SDS011;67556;55.656;12.590;2023-08-30T05:27:16;5.25;;;3.33;;
78298;SDS011;67556;55.656;12.590;2023-08-30T05:29:43;5.05;;;3.53;;
78298;SDS011;67556;55.656;12.590;2023-08-30T05:32:09;4.82;;;3.72;;
78298;SDS011;67556;55.656;12.590;2023-08-30T05:34:36;4.55;;;3.90;;
78298;SDS011;67556;55.656;12.590;2023-08-30T05:37:02;7.07;;;3.70;;
78298;SDS011;67556;55.656;12.590;2023-08-30T05:39:29;4.55;;;3.53;;
78298;SDS011;67556;55.656;12.590;2023-08-30T05:41:55;4.57;;;3.50;;
78298;SDS011;67556;55.656;12.590;2023-08-30T05:44:22;5.05;;;3.78;;
78298;SDS011;67556;55.656;12.590;2023-08-30T05:46:49;5.03;;;3.45;;
78298;SDS011;67556;55.656;12.590;2023-08-30T05:49:15;6.03;;;4.40;;
78298;SDS011;67556;55.656;12.590;2023-08-30T05:51:42;5.03;;;3.60;;
78298;SDS011;67556;55.656;12.590;2023-08-30T05:54:09;5.40;;;3.50;;
78298;SDS011;67556;55.656;12.590;2023-08-30T05:56:35;4.57;;;3.00;;
78298;SDS011;67556;55.656;12.590;2023-08-30T05:59:01;4.40;;;3.30;;
78298;SDS011;67556;55.656;12.590;2023-08-30T06:01:29;6.22;;;3.42;;
78298;SDS011;67556;55.656;12.590;2023-08-30T06:03:56;4.85;;;3.15;;
78298;SDS011;67556;55.656;12.590;2023-08-30T06:06:22;4.32;;;2.95;;
78298;SDS011;67556;55.656;12.590;2023-08-30T06:08:48;5.30;;;3.05;;
78298;SDS011;67556;55.656;12.590;2023-08-30T06:11:14;4.25;;;2.75;;
78298;SDS011;67556;55.656;12.590;2023-08-30T06:13:41;3.20;;;2.63;;
78298;SDS011;67556;55.656;12.590;2023-08-30T06:16:07;3.28;;;2.65;;
78298;SDS011;67556;55.656;12.590;2023-08-30T06:18:35;3.15;;;2.58;;
78298;SDS011;67556;55.656;12.590;2023-08-30T06:21:02;3.03;;;2.35;;
78298;SDS011;67556;55.656;12.590;2023-08-30T06:23:29;3.50;;;2.90;;
78298;SDS011;67556;55.656;12.590;2023-08-30T06:25:55;3.20;;;2.58;;
78298;SDS011;67556;55.656;12.590;2023-08-30T06:28:22;5.03;;;2.67;;
78298;SDS011;67556;55.656;12.590;2023-08-30T06:30:48;5.10;;;3.38;;
78298;SDS011;67556;55.656;12.590;2023-08-30T06:33:15;5.40;;;3.22;;
78298;SDS011;67556;55.656;12.590;2023-08-30T06:35:43;6.30;;;3.15;;
78298;SDS011;67556;55.656;12.590;2023-08-30T06:38:09;4.57;;;3.03;;
78298;SDS011;67556;55.656;12.590;2023-08-30T06:40:36;5.45;;;2.60;;
78298;SDS011;67556;55.656;12.590;2023-08-30T06:43:02;3.30;;;2.92;;
78298;SDS011;67556;55.656;12.590;2023-08-30T06:45:29;2.97;;;2.60;;
78298;SDS011;67556;55.656;12.590;2023-08-30T06:47:55;5.20;;;2.95;;
78298;SDS011;67556;55.656;12.590;2023-08-30T06:50:21;3.53;;;2.40;;
78298;SDS011;67556;55.656;12.590;2023-08-30T06:52:49;4.70;;;2.65;;
78298;SDS011;67556;55.656;12.590;2023-08-30T06:55:17;8.23;;;3.13;;
78298;SDS011;67556;55.656;12.590;2023-08-30T06:57:47;7.22;;;2.78;;
78298;SDS011;67556;55.656;12.590;2023-08-30T07:00:14;11.55;;;3.75;;
78298;SDS011;67556;55.656;12.590;2023-08-30T07:02:40;5.70;;;3.08;;
78298;SDS011;67556;55.656;12.590;2023-08-30T07:05:09;4.13;;;2.92;;
78298;SDS011;67556;55.656;12.590;2023-08-30T07:07:36;4.18;;;2.60;;
78298;SDS011;67556;55.656;12.590;2023-08-30T07:10:04;4.95;;;2.63;;
78298;SDS011;67556;55.656;12.590;2023-08-30T07:12:30;4.85;;;3.00;;
78298;SDS011;67556;55.656;12.590;2023-08-30T07:14:57;4.32;;;2.70;;
78298;SDS011;67556;55.656;12.590;2023-08-30T07:17:23;3.72;;;2.90;;
78298;SDS011;67556;55.656;12.590;2023-08-30T07:19:49;3.90;;;2.90;;
78298;SDS011;67556;55.656;12.590;2023-08-30T07:22:16;5.53;;;2.63;;
78298;SDS011;67556;55.656;12.590;2023-08-30T07:24:42;3.85;;;2.97;;
78298;SDS011;67556;55.656;12.590;2023-08-30T07:27:10;6.78;;;2.22;;
78298;SDS011;67556;55.656;12.590;2023-08-30T07:29:37;5.28;;;2.70;;
78298;SDS011;67556;55.656;12.590;2023-08-30T07:32:05;3.65;;;2.50;;
78298;SDS011;67556;55.656;12.590;2023-08-30T07:34:31;6.78;;;2.75;;
78298;SDS011;67556;55.656;12.590;2023-08-30T07:36:59;4.93;;;2.38;;
78298;SDS011;67556;55.656;12.590;2023-08-30T07:39:25;2.70;;;2.25;;
78298;SDS011;67556;55.656;12.590;2023-08-30T07:41:51;4.88;;;3.08;;
78298;SDS011;67556;55.656;12.590;2023-08-30T07:44:19;4.18;;;2.55;;
78298;SDS011;67556;55.656;12.590;2023-08-30T07:46:45;2.90;;;2.22;;
78298;SDS011;67556;55.656;12.590;2023-08-30T07:49:12;2.80;;;2.40;;
78298;SDS011;67556;55.656;12.590;2023-08-30T07:51:38;4.22;;;2.60;;
78298;SDS011;67556;55.656;12.590;2023-08-30T07:54:04;3.92;;;2.22;;
78298;SDS011;67556;55.656;12.590;2023-08-30T07:56:31;3.25;;;2.40;;
78298;SDS011;67556;55.656;12.590;2023-08-30T07:58:57;3.80;;;2.50;;
78298;SDS011;67556;55.656;12.590;2023-08-30T08:01:25;2.63;;;1.98;;
78298;SDS011;67556;55.656;12.590;2023-08-30T08:03:51;2.95;;;2.20;;
78298;SDS011;67556;55.656;12.590;2023-08-30T08:06:17;4.22;;;1.95;;
78298;SDS011;67556;55.656;12.590;2023-08-30T08:08:44;3.30;;;2.22;;
78298;SDS011;67556;55.656;12.590;2023-08-30T08:11:10;2.80;;;2.08;;
78298;SDS011;67556;55.656;12.590;2023-08-30T08:13:37;2.60;;;2.08;;
78298;SDS011;67556;55.656;12.590;2023-08-30T08:16:04;3.90;;;1.85;;
78298;SDS011;67556;55.656;12.590;2023-08-30T08:18:32;2.88;;;2.13;;
78298;SDS011;67556;55.656;12.590;2023-08-30T08:20:58;4.05;;;2.00;;
78298;SDS011;67556;55.656;12.590;2023-08-30T08:23:24;4.70;;;2.60;;
78298;SDS011;67556;55.656;12.590;2023-08-30T08:25:56;7.68;;;3.42;;
78298;SDS011;67556;55.656;12.590;2023-08-30T08:28:23;8.02;;;3.47;;
78298;SDS011;67556;55.656;12.590;2023-08-30T08:30:49;6.65;;;3.30;;
78298;SDS011;67556;55.656;12.590;2023-08-30T08:33:16;3.33;;;2.50;;
78298;SDS011;67556;55.656;12.590;2023-08-30T08:35:44;3.67;;;2.60;;
78298;SDS011;67556;55.656;12.590;2023-08-30T08:38:11;5.65;;;2.83;;
78298;SDS011;67556;55.656;12.590;2023-08-30T08:40:38;4.10;;;2.67;;
78298;SDS011;67556;55.656;12.590;2023-08-30T08:43:04;4.05;;;2.40;;
78298;SDS011;67556;55.656;12.590;2023-08-30T08:45:31;6.47;;;2.50;;
78298;SDS011;67556;55.656;12.590;2023-08-30T08:47:58;5.45;;;2.40;;
78298;SDS011;67556;55.656;12.590;2023-08-30T08:50:25;4.95;;;2.47;;
78298;SDS011;67556;55.656;12.590;2023-08-30T08:52:54;4.40;;;2.08;;
78298;SDS011;67556;55.656;12.590;2023-08-30T08:55:21;3.00;;;2.38;;
78298;SDS011;67556;55.656;12.590;2023-08-30T08:57:48;4.95;;;2.80;;
78298;SDS011;67556;55.656;12.590;2023-08-30T09:00:14;3.38;;;2.38;;
78298;SDS011;67556;55.656;12.590;2023-08-30T09:02:41;4.60;;;2.33;;
78298;SDS011;67556;55.656;12.590;2023-08-30T09:05:08;3.00;;;1.90;;
78298;SDS011;67556;55.656;12.590;2023-08-30T09:07:34;3.30;;;2.13;;
78298;SDS011;67556;55.656;12.590;2023-08-30T09:10:04;3.10;;;2.33;;
78298;SDS011;67556;55.656;12.590;2023-08-30T09:12:32;2.92;;;2.10;;
78298;SDS011;67556;55.656;12.590;2023-08-30T09:14:59;2.88;;;1.85;;
78298;SDS011;67556;55.656;12.590;2023-08-30T09:17:34;2.95;;;1.80;;
78298;SDS011;67556;55.656;12.590;2023-08-30T09:20:05;2.50;;;1.70;;
78298;SDS011;67556;55.656;12.590;2023-08-30T09:22:35;2.70;;;2.15;;
78298;SDS011;67556;55.656;12.590;2023-08-30T09:25:02;3.10;;;2.20;;
78298;SDS011;67556;55.656;12.590;2023-08-30T09:27:32;3.47;;;2.15;;
78298;SDS011;67556;55.656;12.590;2023-08-30T09:29:59;3.10;;;2.08;;
78298;SDS011;67556;55.656;12.590;2023-08-30T09:32:25;3.65;;;1.95;;
78298;SDS011;67556;55.656;12.590;2023-08-30T09:34:52;3.55;;;2.08;;
78298;SDS011;67556;55.656;12.590;2023-08-30T09:37:19;3.25;;;1.85;;
78298;SDS011;67556;55.656;12.590;2023-08-30T09:39:48;4.07;;;2.10;;
78298;SDS011;67556;55.656;12.590;2023-08-30T09:42:15;3.00;;;2.20;;
78298;SDS011;67556;55.656;12.590;2023-08-30T09:44:44;3.67;;;2.20;;
78298;SDS011;67556;55.656;12.590;2023-08-30T09:47:12;3.40;;;2.13;;
78298;SDS011;67556;55.656;12.590;2023-08-30T09:49:40;5.18;;;3.10;;
78298;SDS011;67556;55.656;12.590;2023-08-30T09:52:08;5.22;;;3.95;;
78298;SDS011;67556;55.656;12.590;2023-08-30T09:54:35;2.58;;;2.08;;
78298;SDS011;67556;55.656;12.590;2023-08-30T09:57:03;2.38;;;1.90;;
78298;SDS011;67556;55.656;12.590;2023-08-30T09:59:30;3.08;;;2.10;;
78298;SDS011;67556;55.656;12.590;2023-08-30T10:01:58;3.05;;;2.33;;
78298;SDS011;67556;55.656;12.590;2023-08-30T10:04:25;2.40;;;2.03;;
78298;SDS011;67556;55.656;12.590;2023-08-30T10:06:52;3.03;;;1.98;;
78298;SDS011;67556;55.656;12.590;2023-08-30T10:09:19;3.78;;;2.00;;
78298;SDS011;67556;55.656;12.590;2023-08-30T10:11:47;2.58;;;1.95;;
78298;SDS011;67556;55.656;12.590;2023-08-30T10:14:13;3.03;;;2.00;;
78298;SDS011;67556;55.656;12.590;2023-08-30T10:16:40;2.85;;;1.92;;
78298;SDS011;67556;55.656;12.590;2023-08-30T10:19:09;7.53;;;2.35;;
78298;SDS011;67556;55.656;12.590;2023-08-30T10:21:36;2.22;;;1.85;;
78298;SDS011;67556;55.656;12.590;2023-08-30T10:24:04;3.30;;;1.98;;
78298;SDS011;67556;55.656;12.590;2023-08-30T10:26:31;2.90;;;1.98;;
78298;SDS011;67556;55.656;12.590;2023-08-30T10:28:57;4.82;;;2.55;;
78298;SDS011;67556;55.656;12.590;2023-08-30T10:31:24;5.15;;;2.40;;
78298;SDS011;67556;55.656;12.590;2023-08-30T10:33:52;8.23;;;3.97;;
78298;SDS011;67556;55.656;12.590;2023-08-30T10:36:23;4.90;;;2.50;;
78298;SDS011;67556;55.656;12.590;2023-08-30T10:38:50;9.15;;;3.08;;
78298;SDS011;67556;55.656;12.590;2023-08-30T10:41:20;4.68;;;2.40;;
78298;SDS011;67556;55.656;12.590;2023-08-30T10:43:49;3.00;;;1.85;;
78298;SDS011;67556;55.656;12.590;2023-08-30T10:46:17;4.38;;;2.10;;
78298;SDS011;67556;55.656;12.590;2023-08-30T10:48:43;4.95;;;2.58;;
78298;SDS011;67556;55.656;12.590;2023-08-30T10:51:16;5.25;;;2.20;;
78298;SDS011;67556;55.656;12.590;2023-08-30T10:53:55;3.45;;;2.05;;
78298;SDS011;67556;55.656;12.590;2023-08-30T10:56:26;2.70;;;2.03;;
78298;SDS011;67556;55.656;12.590;2023-08-30T10:58:53;3.22;;;1.85;;
78298;SDS011;67556;55.656;12.590;2023-08-30T11:01:19;3.38;;;2.22;;
78298;SDS011;67556;55.656;12.590;2023-08-30T11:03:46;3.50;;;2.38;;
78298;SDS011;67556;55.656;12.590;2023-08-30T11:06:13;3.17;;;2.10;;
78298;SDS011;67556;55.656;12.590;2023-08-30T11:08:39;4.70;;;2.40;;
78298;SDS011;67556;55.656;12.590;2023-08-30T11:11:07;9.07;;;4.75;;
78298;SDS011;67556;55.656;12.590;2023-08-30T11:13:35;11.95;;;5.00;;
78298;SDS011;67556;55.656;12.590;2023-08-30T11:16:02;4.07;;;1.95;;
78298;SDS011;67556;55.656;12.590;2023-08-30T11:18:29;3.72;;;2.08;;
78298;SDS011;67556;55.656;12.590;2023-08-30T11:20:57;3.00;;;1.63;;
78298;SDS011;67556;55.656;12.590;2023-08-30T11:23:24;4.15;;;1.90;;
78298;SDS011;67556;55.656;12.590;2023-08-30T11:25:51;3.55;;;1.70;;
78298;SDS011;67556;55.656;12.590;2023-08-30T11:28:22;4.00;;;2.50;;
78298;SDS011;67556;55.656;12.590;2023-08-30T11:30:49;4.70;;;2.58;;
78298;SDS011;67556;55.656;12.590;2023-08-30T11:33:16;2.90;;;1.80;;
78298;SDS011;67556;55.656;12.590;2023-08-30T11:35:42;2.72;;;1.70;;
78298;SDS011;67556;55.656;12.590;2023-08-30T11:38:09;3.00;;;1.70;;
78298;SDS011;67556;55.656;12.590;2023-08-30T11:40:35;3.13;;;1.80;;
78298;SDS011;67556;55.656;12.590;2023-08-30T11:43:02;3.22;;;1.65;;
78298;SDS011;67556;55.656;12.590;2023-08-30T11:45:32;2.58;;;1.80;;
78298;SDS011;67556;55.656;12.590;2023-08-30T11:47:59;2.53;;;1.52;;
78298;SDS011;67556;55.656;12.590;2023-08-30T11:50:26;2.00;;;1.52;;
78298;SDS011;67556;55.656;12.590;2023-08-30T11:52:53;3.08;;;1.98;;
78298;SDS011;67556;55.656;12.590;2023-08-30T11:55:19;2.00;;;1.50;;
78298;SDS011;67556;55.656;12.590;2023-08-30T11:57:47;3.70;;;1.75;;
78298;SDS011;67556;55.656;12.590;2023-08-30T12:00:14;2.10;;;1.55;;
78298;SDS011;67556;55.656;12.590;2023-08-30T12:02:42;2.70;;;1.55;;
78298;SDS011;67556;55.656;12.590;2023-08-30T12:05:10;2.65;;;1.60;;
78298;SDS011;67556;55.656;12.590;2023-08-30T12:07:36;2.08;;;1.30;;
78298;SDS011;67556;55.656;12.590;2023-08-30T12:10:04;3.00;;;1.42;;
78298;SDS011;67556;55.656;12.590;2023-08-30T12:12:30;2.25;;;1.50;;
78298;SDS011;67556;55.656;12.590;2023-08-30T12:14:57;2.30;;;1.55;;
78298;SDS011;67556;55.656;12.590;2023-08-30T12:17:23;3.25;;;1.48;;
78298;SDS011;67556;55.656;12.590;2023-08-30T12:19:56;2.45;;;1.27;;
78298;SDS011;67556;55.656;12.590;2023-08-30T12:22:22;2.75;;;1.40;;
78298;SDS011;67556;55.656;12.590;2023-08-30T12:24:49;2.30;;;1.60;;
78298;SDS011;67556;55.656;12.590;2023-08-30T12:27:16;2.55;;;1.50;;
78298;SDS011;67556;55.656;12.590;2023-08-30T12:29:42;1.95;;;1.42;;
78298;SDS011;67556;55.656;12.590;2023-08-30T12:32:08;2.70;;;1.50;;
78298;SDS011;67556;55.656;12.590;2023-08-30T12:34:35;2.05;;;1.33;;
78298;SDS011;67556;55.656;12.590;2023-08-30T12:37:03;2.70;;;1.48;;
78298;SDS011;67556;55.656;12.590;2023-08-30T12:39:29;3.33;;;1.50;;
78298;SDS011;67556;55.656;12.590;2023-08-30T12:41:56;3.35;;;1.50;;
78298;SDS011;67556;55.656;12.590;2023-08-30T12:44:22;2.35;;;1.40;;
78298;SDS011;67556;55.656;12.590;2023-08-30T12:46:48;3.20;;;1.30;;
78298;SDS011;67556;55.656;12.590;2023-08-30T12:49:15;2.08;;;1.25;;
78298;SDS011;67556;55.656;12.590;2023-08-30T12:51:41;3.20;;;1.30;;
78298;SDS011;67556;55.656;12.590;2023-08-30T12:54:08;4.45;;;1.40;;
78298;SDS011;67556;55.656;12.590;2023-08-30T12:56:35;3.63;;;1.60;;
78298;SDS011;67556;55.656;12.590;2023-08-30T12:59:01;2.97;;;1.30;;
78298;SDS011;67556;55.656;12.590;2023-08-30T13:01:28;5.10;;;1.58;;
78298;SDS011;67556;55.656;12.590;2023-08-30T13:03:54;3.05;;;1.50;;
78298;SDS011;67556;55.656;12.590;2023-08-30T13:06:21;1.55;;;1.30;;
78298;SDS011;67556;55.656;12.590;2023-08-30T13:08:47;2.42;;;1.48;;
78298;SDS011;67556;55.656;12.590;2023-08-30T13:11:15;1.55;;;1.30;;
78298;SDS011;67556;55.656;12.590;2023-08-30T13:13:41;1.88;;;1.30;;
78298;SDS011;67556;55.656;12.590;2023-08-30T13:16:07;2.22;;;1.27;;
78298;SDS011;67556;55.656;12.590;2023-08-30T13:18:33;2.47;;;1.60;;
78298;SDS011;67556;55.656;12.590;2023-08-30T13:21:00;2.35;;;1.23;;
78298;SDS011;67556;55.656;12.590;2023-08-30T13:23:26;3.47;;;1.40;;
78298;SDS011;67556;55.656;12.590;2023-08-30T13:25:52;3.63;;;1.40;;
78298;SDS011;67556;55.656;12.590;2023-08-30T13:28:20;2.45;;;1.35;;
78298;SDS011;67556;55.656;12.590;2023-08-30T13:30:46;2.13;;;1.40;;
78298;SDS011;67556;55.656;12.590;2023-08-30T13:33:14;2.17;;;1.60;;
78298;SDS011;67556;55.656;12.590;2023-08-30T13:35:40;2.05;;;1.40;;
78298;SDS011;67556;55.656;12.590;2023-08-30T13:38:07;1.27;;;1.10;;
78298;SDS011;67556;55.656;12.590;2023-08-30T13:40:33;2.22;;;1.50;;
78298;SDS011;67556;55.656;12.590;2023-08-30T13:42:59;1.50;;;1.27;;
78298;SDS011;67556;55.656;12.590;2023-08-30T13:45:27;1.90;;;1.45;;
78298;SDS011;67556;55.656;12.590;2023-08-30T13:47:53;1.88;;;1.23;;
78298;SDS011;67556;55.656;12.590;2023-08-30T13:50:20;1.83;;;1.30;;
78298;SDS011;67556;55.656;12.590;2023-08-30T13:52:46;2.05;;;1.40;;
78298;SDS011;67556;55.656;12.590;2023-08-30T13:55:12;2.20;;;1.30;;
78298;SDS011;67556;55.656;12.590;2023-08-30T13:57:38;1.48;;;1.10;;
78298;SDS011;67556;55.656;12.590;2023-08-30T14:00:05;1.77;;;1.30;;
78298;SDS011;67556;55.656;12.590;2023-08-30T14:02:36;1.88;;;1.08;;
78298;SDS011;67556;55.656;12.590;2023-08-30T14:05:02;1.30;;;1.02;;
78298;SDS011;67556;55.656;12.590;2023-08-30T14:07:28;1.52;;;1.20;;
78298;SDS011;67556;55.656;12.590;2023-08-30T14:09:55;1.60;;;1.10;;
78298;SDS011;67556;55.656;12.590;2023-08-30T14:12:21;1.80;;;1.40;;
78298;SDS011;67556;55.656;12.590;2023-08-30T14:14:48;1.65;;;1.20;;
78298;SDS011;67556;55.656;12.590;2023-08-30T14:17:14;1.55;;;1.23;;
78298;SDS011;67556;55.656;12.590;2023-08-30T14:19:42;1.85;;;1.40;;
78298;SDS011;67556;55.656;12.590;2023-08-30T14:22:08;2.80;;;1.20;;
78298;SDS011;67556;55.656;12.590;2023-08-30T14:24:34;1.90;;;1.25;;
78298;SDS011;67556;55.656;12.590;2023-08-30T14:27:00;1.75;;;1.20;;
78298;SDS011;67556;55.656;12.590;2023-08-30T14:29:26;1.42;;;1.20;;
78298;SDS011;67556;55.656;12.590;2023-08-30T14:31:53;1.75;;;1.23;;
78298;SDS011;67556;55.656;12.590;2023-08-30T14:34:19;2.15;;;1.38;;